Mauriti, Brazil
Current Conditions -  °F | °C
As of 5:00 PM on Wednesday 26 Nov 2014 (Local Time) from SBJU Reporting Station
Broken Clouds Broken Clouds  
Wind Chill: 93°   Ceiling: 2000
Heat Index: 97°   Visibility: 6mi
Dew Point: 68°   Wind: 3mph
Humidity: 44%   Direction: 70°ENE
Pressure: 29.88"   Gusts: NA
Location:  7.39°S, 38.77°W
Report Text: SBJU 262000Z 07003KT 9999 BKN020 34/20 Q1012
Loading
Personal Weather Stations






























Interactive Weather Map New forecast layout! Learn more

10-Day Weather Forecast

Advertisements
Track Severe Weather on mobile